sensor_id;sensor_type;location;lat;lon;timestamp;P1;durP1;ratioP1;P2;durP2;ratioP2
9970;SDS011;5026;51.494;11.974;2023-05-14T00:00:29;9.70;;;6.77;;
9970;SDS011;5026;51.494;11.974;2023-05-14T00:02:56;8.30;;;6.53;;
9970;SDS011;5026;51.494;11.974;2023-05-14T00:05:23;8.93;;;6.13;;
9970;SDS011;5026;51.494;11.974;2023-05-14T00:07:50;9.00;;;7.53;;
9970;SDS011;5026;51.494;11.974;2023-05-14T00:10:17;7.97;;;6.97;;
9970;SDS011;5026;51.494;11.974;2023-05-14T00:12:45;9.20;;;7.03;;
9970;SDS011;5026;51.494;11.974;2023-05-14T00:15:12;8.30;;;6.80;;
9970;SDS011;5026;51.494;11.974;2023-05-14T00:17:41;9.63;;;6.73;;
9970;SDS011;5026;51.494;11.974;2023-05-14T00:20:08;9.07;;;7.23;;
9970;SDS011;5026;51.494;11.974;2023-05-14T00:22:36;9.67;;;6.93;;
9970;SDS011;5026;51.494;11.974;2023-05-14T00:25:04;8.10;;;6.80;;
9970;SDS011;5026;51.494;11.974;2023-05-14T00:27:32;8.33;;;6.83;;
9970;SDS011;5026;51.494;11.974;2023-05-14T00:30:00;7.87;;;7.03;;
9970;SDS011;5026;51.494;11.974;2023-05-14T00:32:27;9.23;;;7.33;;
9970;SDS011;5026;51.494;11.974;2023-05-14T00:34:56;8.53;;;7.03;;
9970;SDS011;5026;51.494;11.974;2023-05-14T00:37:23;9.23;;;7.60;;
9970;SDS011;5026;51.494;11.974;2023-05-14T00:39:50;8.20;;;6.57;;
9970;SDS011;5026;51.494;11.974;2023-05-14T00:42:17;9.20;;;6.83;;
9970;SDS011;5026;51.494;11.974;2023-05-14T00:44:44;10.57;;;7.30;;
9970;SDS011;5026;51.494;11.974;2023-05-14T00:47:11;8.23;;;6.40;;
9970;SDS011;5026;51.494;11.974;2023-05-14T00:49:38;10.90;;;7.07;;
9970;SDS011;5026;51.494;11.974;2023-05-14T00:52:06;8.53;;;7.10;;
9970;SDS011;5026;51.494;11.974;2023-05-14T00:54:33;9.63;;;6.90;;
9970;SDS011;5026;51.494;11.974;2023-05-14T00:57:02;7.60;;;6.80;;
9970;SDS011;5026;51.494;11.974;2023-05-14T00:59:30;8.97;;;7.10;;
9970;SDS011;5026;51.494;11.974;2023-05-14T01:01:56;7.77;;;6.90;;
9970;SDS011;5026;51.494;11.974;2023-05-14T01:04:23;8.33;;;7.47;;
9970;SDS011;5026;51.494;11.974;2023-05-14T01:06:53;9.50;;;7.53;;
9970;SDS011;5026;51.494;11.974;2023-05-14T01:09:34;8.13;;;7.00;;
9970;SDS011;5026;51.494;11.974;2023-05-14T01:12:07;8.83;;;6.90;;
9970;SDS011;5026;51.494;11.974;2023-05-14T01:14:43;9.67;;;7.83;;
9970;SDS011;5026;51.494;11.974;2023-05-14T01:17:17;10.00;;;7.27;;
9970;SDS011;5026;51.494;11.974;2023-05-14T01:19:47;9.00;;;7.70;;
9970;SDS011;5026;51.494;11.974;2023-05-14T01:22:17;10.57;;;7.67;;
9970;SDS011;5026;51.494;11.974;2023-05-14T01:24:44;9.80;;;7.47;;
9970;SDS011;5026;51.494;11.974;2023-05-14T01:29:58;13.93;;;8.07;;
9970;SDS011;5026;51.494;11.974;2023-05-14T01:32:32;9.30;;;7.47;;
9970;SDS011;5026;51.494;11.974;2023-05-14T01:35:00;7.93;;;7.13;;
9970;SDS011;5026;51.494;11.974;2023-05-14T01:37:29;8.10;;;6.70;;
9970;SDS011;5026;51.494;11.974;2023-05-14T01:39:57;9.20;;;7.13;;
9970;SDS011;5026;51.494;11.974;2023-05-14T01:42:25;10.67;;;7.17;;
9970;SDS011;5026;51.494;11.974;2023-05-14T01:44:53;11.93;;;7.73;;
9970;SDS011;5026;51.494;11.974;2023-05-14T01:47:20;9.60;;;7.73;;
9970;SDS011;5026;51.494;11.974;2023-05-14T01:49:47;10.90;;;7.30;;
9970;SDS011;5026;51.494;11.974;2023-05-14T01:52:13;10.73;;;7.50;;
9970;SDS011;5026;51.494;11.974;2023-05-14T01:54:42;9.57;;;7.37;;
9970;SDS011;5026;51.494;11.974;2023-05-14T01:57:09;7.43;;;6.63;;
9970;SDS011;5026;51.494;11.974;2023-05-14T01:59:36;11.80;;;7.53;;
9970;SDS011;5026;51.494;11.974;2023-05-14T02:02:03;10.80;;;6.93;;
9970;SDS011;5026;51.494;11.974;2023-05-14T02:04:30;9.90;;;7.17;;
9970;SDS011;5026;51.494;11.974;2023-05-14T02:06:57;9.13;;;8.20;;
9970;SDS011;5026;51.494;11.974;2023-05-14T02:09:24;11.23;;;7.87;;
9970;SDS011;5026;51.494;11.974;2023-05-14T02:11:52;10.13;;;7.37;;
9970;SDS011;5026;51.494;11.974;2023-05-14T02:14:19;7.97;;;7.10;;
9970;SDS011;5026;51.494;11.974;2023-05-14T02:16:46;9.63;;;7.50;;
9970;SDS011;5026;51.494;11.974;2023-05-14T02:19:13;9.87;;;7.40;;
9970;SDS011;5026;51.494;11.974;2023-05-14T02:21:40;8.43;;;7.47;;
9970;SDS011;5026;51.494;11.974;2023-05-14T02:24:06;9.73;;;7.70;;
9970;SDS011;5026;51.494;11.974;2023-05-14T02:26:33;9.43;;;7.87;;
9970;SDS011;5026;51.494;11.974;2023-05-14T02:29:02;13.23;;;7.67;;
9970;SDS011;5026;51.494;11.974;2023-05-14T02:31:29;10.47;;;7.80;;
9970;SDS011;5026;51.494;11.974;2023-05-14T02:33:56;10.50;;;7.70;;
9970;SDS011;5026;51.494;11.974;2023-05-14T02:36:22;8.07;;;7.27;;
9970;SDS011;5026;51.494;11.974;2023-05-14T02:38:49;8.13;;;7.10;;
9970;SDS011;5026;51.494;11.974;2023-05-14T02:41:16;11.57;;;7.23;;
9970;SDS011;5026;51.494;11.974;2023-05-14T02:43:43;8.93;;;7.17;;
9970;SDS011;5026;51.494;11.974;2023-05-14T02:46:11;7.90;;;7.00;;
9970;SDS011;5026;51.494;11.974;2023-05-14T02:48:38;8.13;;;7.33;;
9970;SDS011;5026;51.494;11.974;2023-05-14T02:51:05;8.13;;;6.77;;
9970;SDS011;5026;51.494;11.974;2023-05-14T02:53:33;8.27;;;6.53;;
9970;SDS011;5026;51.494;11.974;2023-05-14T02:56:00;7.77;;;6.90;;
9970;SDS011;5026;51.494;11.974;2023-05-14T02:58:27;11.10;;;7.07;;
9970;SDS011;5026;51.494;11.974;2023-05-14T03:00:54;8.93;;;6.77;;
9970;SDS011;5026;51.494;11.974;2023-05-14T03:03:23;9.70;;;6.73;;
9970;SDS011;5026;51.494;11.974;2023-05-14T03:05:50;10.27;;;7.17;;
9970;SDS011;5026;51.494;11.974;2023-05-14T03:08:17;9.10;;;7.07;;
9970;SDS011;5026;51.494;11.974;2023-05-14T03:10:44;9.17;;;6.33;;
9970;SDS011;5026;51.494;11.974;2023-05-14T03:13:11;7.73;;;6.90;;
9970;SDS011;5026;51.494;11.974;2023-05-14T03:15:41;8.60;;;7.10;;
9970;SDS011;5026;51.494;11.974;2023-05-14T03:18:08;8.17;;;6.60;;
9970;SDS011;5026;51.494;11.974;2023-05-14T03:20:37;8.63;;;6.73;;
9970;SDS011;5026;51.494;11.974;2023-05-14T03:23:03;10.17;;;6.90;;
9970;SDS011;5026;51.494;11.974;2023-05-14T03:25:31;9.33;;;6.67;;
9970;SDS011;5026;51.494;11.974;2023-05-14T03:27:58;8.27;;;7.30;;
9970;SDS011;5026;51.494;11.974;2023-05-14T03:30:25;8.63;;;7.23;;
9970;SDS011;5026;51.494;11.974;2023-05-14T03:32:52;8.37;;;7.10;;
9970;SDS011;5026;51.494;11.974;2023-05-14T03:35:19;8.87;;;6.37;;
9970;SDS011;5026;51.494;11.974;2023-05-14T03:37:47;10.07;;;7.07;;
9970;SDS011;5026;51.494;11.974;2023-05-14T03:40:15;11.07;;;7.13;;
9970;SDS011;5026;51.494;11.974;2023-05-14T03:42:42;7.53;;;6.40;;
9970;SDS011;5026;51.494;11.974;2023-05-14T03:45:08;11.13;;;7.73;;
9970;SDS011;5026;51.494;11.974;2023-05-14T03:47:35;10.57;;;7.30;;
9970;SDS011;5026;51.494;11.974;2023-05-14T03:50:03;9.30;;;7.37;;
9970;SDS011;5026;51.494;11.974;2023-05-14T03:52:30;11.00;;;7.70;;
9970;SDS011;5026;51.494;11.974;2023-05-14T03:54:58;8.33;;;7.30;;
9970;SDS011;5026;51.494;11.974;2023-05-14T03:57:25;9.23;;;7.20;;
9970;SDS011;5026;51.494;11.974;2023-05-14T03:59:52;9.27;;;7.27;;
9970;SDS011;5026;51.494;11.974;2023-05-14T04:02:19;7.83;;;6.80;;
9970;SDS011;5026;51.494;11.974;2023-05-14T04:04:46;11.07;;;7.30;;
9970;SDS011;5026;51.494;11.974;2023-05-14T04:07:13;9.13;;;6.50;;
9970;SDS011;5026;51.494;11.974;2023-05-14T04:09:40;9.47;;;6.87;;
9970;SDS011;5026;51.494;11.974;2023-05-14T04:12:09;7.73;;;6.93;;
9970;SDS011;5026;51.494;11.974;2023-05-14T04:14:36;8.90;;;7.33;;
9970;SDS011;5026;51.494;11.974;2023-05-14T04:17:03;8.20;;;6.70;;
9970;SDS011;5026;51.494;11.974;2023-05-14T04:19:30;8.07;;;7.17;;
9970;SDS011;5026;51.494;11.974;2023-05-14T04:21:57;8.60;;;6.27;;
9970;SDS011;5026;51.494;11.974;2023-05-14T04:24:23;9.00;;;7.07;;
9970;SDS011;5026;51.494;11.974;2023-05-14T04:26:50;9.20;;;6.50;;
9970;SDS011;5026;51.494;11.974;2023-05-14T04:29:19;7.20;;;6.50;;
9970;SDS011;5026;51.494;11.974;2023-05-14T04:31:46;8.97;;;7.60;;
9970;SDS011;5026;51.494;11.974;2023-05-14T04:34:14;9.67;;;7.97;;
9970;SDS011;5026;51.494;11.974;2023-05-14T04:36:43;10.53;;;8.43;;
9970;SDS011;5026;51.494;11.974;2023-05-14T04:39:10;9.37;;;8.07;;
9970;SDS011;5026;51.494;11.974;2023-05-14T04:41:39;10.10;;;8.00;;
9970;SDS011;5026;51.494;11.974;2023-05-14T04:44:06;9.97;;;8.03;;
9970;SDS011;5026;51.494;11.974;2023-05-14T04:46:35;9.97;;;8.40;;
9970;SDS011;5026;51.494;11.974;2023-05-14T04:49:01;9.80;;;7.83;;
9970;SDS011;5026;51.494;11.974;2023-05-14T04:51:28;13.23;;;7.57;;
9970;SDS011;5026;51.494;11.974;2023-05-14T04:53:55;10.07;;;7.67;;
9970;SDS011;5026;51.494;11.974;2023-05-14T04:56:22;17.10;;;8.33;;
9970;SDS011;5026;51.494;11.974;2023-05-14T04:58:49;9.23;;;8.23;;
9970;SDS011;5026;51.494;11.974;2023-05-14T05:01:16;8.53;;;7.53;;
9970;SDS011;5026;51.494;11.974;2023-05-14T05:03:44;9.90;;;7.53;;
9970;SDS011;5026;51.494;11.974;2023-05-14T05:06:11;11.00;;;7.30;;
9970;SDS011;5026;51.494;11.974;2023-05-14T05:08:40;9.40;;;7.60;;
9970;SDS011;5026;51.494;11.974;2023-05-14T05:11:07;9.40;;;6.83;;
9970;SDS011;5026;51.494;11.974;2023-05-14T05:13:34;7.07;;;6.33;;
9970;SDS011;5026;51.494;11.974;2023-05-14T05:16:01;8.27;;;7.37;;
9970;SDS011;5026;51.494;11.974;2023-05-14T05:18:28;8.13;;;7.13;;
9970;SDS011;5026;51.494;11.974;2023-05-14T05:20:56;8.82;;;7.45;;
9970;SDS011;5026;51.494;11.974;2023-05-14T05:23:23;11.27;;;7.30;;
9970;SDS011;5026;51.494;11.974;2023-05-14T05:25:50;10.17;;;7.37;;
9970;SDS011;5026;51.494;11.974;2023-05-14T05:28:17;8.83;;;6.50;;
9970;SDS011;5026;51.494;11.974;2023-05-14T05:30:44;7.82;;;5.88;;
9970;SDS011;5026;51.494;11.974;2023-05-14T05:33:11;10.52;;;6.57;;
9970;SDS011;5026;51.494;11.974;2023-05-14T05:35:38;6.78;;;6.18;;
9970;SDS011;5026;51.494;11.974;2023-05-14T05:38:08;8.35;;;6.10;;
9970;SDS011;5026;51.494;11.974;2023-05-14T05:40:35;6.25;;;5.65;;
9970;SDS011;5026;51.494;11.974;2023-05-14T05:43:02;6.18;;;5.57;;
9970;SDS011;5026;51.494;11.974;2023-05-14T05:45:29;7.43;;;5.55;;
9970;SDS011;5026;51.494;11.974;2023-05-14T05:47:56;8.95;;;5.93;;
9970;SDS011;5026;51.494;11.974;2023-05-14T05:50:23;6.50;;;5.65;;
9970;SDS011;5026;51.494;11.974;2023-05-14T05:52:50;8.55;;;5.93;;
9970;SDS011;5026;51.494;11.974;2023-05-14T05:55:19;6.80;;;5.60;;
9970;SDS011;5026;51.494;11.974;2023-05-14T05:57:46;6.57;;;5.88;;
9970;SDS011;5026;51.494;11.974;2023-05-14T06:00:13;8.02;;;5.70;;
9970;SDS011;5026;51.494;11.974;2023-05-14T06:02:41;8.35;;;5.88;;
9970;SDS011;5026;51.494;11.974;2023-05-14T06:05:08;6.65;;;6.00;;
9970;SDS011;5026;51.494;11.974;2023-05-14T06:07:36;6.63;;;5.93;;
9970;SDS011;5026;51.494;11.974;2023-05-14T06:10:03;6.85;;;5.32;;
9970;SDS011;5026;51.494;11.974;2023-05-14T06:12:32;5.60;;;5.10;;
9970;SDS011;5026;51.494;11.974;2023-05-14T06:14:59;8.05;;;5.38;;
9970;SDS011;5026;51.494;11.974;2023-05-14T06:17:26;8.23;;;5.20;;
9970;SDS011;5026;51.494;11.974;2023-05-14T06:19:52;8.02;;;5.05;;
9970;SDS011;5026;51.494;11.974;2023-05-14T06:22:19;5.22;;;4.72;;
9970;SDS011;5026;51.494;11.974;2023-05-14T06:24:46;6.13;;;4.90;;
9970;SDS011;5026;51.494;11.974;2023-05-14T06:27:13;5.70;;;4.93;;
9970;SDS011;5026;51.494;11.974;2023-05-14T06:29:41;5.45;;;4.95;;
9970;SDS011;5026;51.494;11.974;2023-05-14T06:32:08;5.57;;;5.07;;
9970;SDS011;5026;51.494;11.974;2023-05-14T06:34:38;5.80;;;5.22;;
9970;SDS011;5026;51.494;11.974;2023-05-14T06:37:05;6.07;;;5.05;;
9970;SDS011;5026;51.494;11.974;2023-05-14T06:39:32;6.28;;;5.05;;
9970;SDS011;5026;51.494;11.974;2023-05-14T06:41:59;5.63;;;5.13;;
9970;SDS011;5026;51.494;11.974;2023-05-14T06:44:25;5.60;;;5.00;;
9970;SDS011;5026;51.494;11.974;2023-05-14T06:46:54;5.40;;;4.70;;
9970;SDS011;5026;51.494;11.974;2023-05-14T06:49:21;5.18;;;4.40;;
9970;SDS011;5026;51.494;11.974;2023-05-14T06:51:48;7.50;;;5.32;;
9970;SDS011;5026;51.494;11.974;2023-05-14T06:54:16;7.93;;;5.18;;
9970;SDS011;5026;51.494;11.974;2023-05-14T06:56:44;5.38;;;4.88;;
9970;SDS011;5026;51.494;11.974;2023-05-14T06:59:11;5.88;;;5.10;;
9970;SDS011;5026;51.494;11.974;2023-05-14T07:01:38;5.50;;;4.65;;
9970;SDS011;5026;51.494;11.974;2023-05-14T07:04:07;5.90;;;5.07;;
9970;SDS011;5026;51.494;11.974;2023-05-14T07:06:34;6.70;;;4.97;;
9970;SDS011;5026;51.494;11.974;2023-05-14T07:09:01;4.90;;;4.50;;
9970;SDS011;5026;51.494;11.974;2023-05-14T07:11:28;5.43;;;4.60;;
9970;SDS011;5026;51.494;11.974;2023-05-14T07:13:55;6.07;;;4.90;;
9970;SDS011;5026;51.494;11.974;2023-05-14T07:16:22;6.72;;;4.43;;
9970;SDS011;5026;51.494;11.974;2023-05-14T07:18:49;5.53;;;4.85;;
9970;SDS011;5026;51.494;11.974;2023-05-14T07:21:17;5.40;;;4.90;;
9970;SDS011;5026;51.494;11.974;2023-05-14T07:23:44;4.95;;;4.53;;
9970;SDS011;5026;51.494;11.974;2023-05-14T07:26:11;9.10;;;5.30;;
9970;SDS011;5026;51.494;11.974;2023-05-14T07:28:38;5.07;;;4.68;;
9970;SDS011;5026;51.494;11.974;2023-05-14T07:31:05;5.43;;;4.97;;
9970;SDS011;5026;51.494;11.974;2023-05-14T07:33:32;5.85;;;5.00;;
9970;SDS011;5026;51.494;11.974;2023-05-14T07:35:59;6.97;;;5.10;;
9970;SDS011;5026;51.494;11.974;2023-05-14T07:38:28;6.13;;;4.63;;
9970;SDS011;5026;51.494;11.974;2023-05-14T07:40:55;5.35;;;4.85;;
9970;SDS011;5026;51.494;11.974;2023-05-14T07:43:22;7.13;;;5.00;;
9970;SDS011;5026;51.494;11.974;2023-05-14T07:45:49;6.25;;;4.85;;
9970;SDS011;5026;51.494;11.974;2023-05-14T07:48:16;5.57;;;5.07;;
9970;SDS011;5026;51.494;11.974;2023-05-14T07:50:43;5.32;;;4.85;;
9970;SDS011;5026;51.494;11.974;2023-05-14T07:53:10;5.88;;;4.97;;
9970;SDS011;5026;51.494;11.974;2023-05-14T07:55:39;5.60;;;5.10;;
9970;SDS011;5026;51.494;11.974;2023-05-14T07:58:10;6.03;;;5.00;;
9970;SDS011;5026;51.494;11.974;2023-05-14T08:00:37;6.28;;;5.47;;
9970;SDS011;5026;51.494;11.974;2023-05-14T08:03:04;5.93;;;5.32;;
9970;SDS011;5026;51.494;11.974;2023-05-14T08:05:32;5.85;;;4.95;;
9970;SDS011;5026;51.494;11.974;2023-05-14T08:07:59;5.50;;;4.95;;
9970;SDS011;5026;51.494;11.974;2023-05-14T08:10:26;5.82;;;5.18;;
9970;SDS011;5026;51.494;11.974;2023-05-14T08:12:55;5.50;;;5.00;;
9970;SDS011;5026;51.494;11.974;2023-05-14T08:15:22;7.32;;;5.00;;
9970;SDS011;5026;51.494;11.974;2023-05-14T08:17:49;6.15;;;5.15;;
9970;SDS011;5026;51.494;11.974;2023-05-14T08:20:16;5.07;;;4.68;;
9970;SDS011;5026;51.494;11.974;2023-05-14T08:22:43;5.22;;;4.78;;
9970;SDS011;5026;51.494;11.974;2023-05-14T08:25:10;5.13;;;4.72;;
9970;SDS011;5026;51.494;11.974;2023-05-14T08:27:37;5.97;;;4.80;;
9970;SDS011;5026;51.494;11.974;2023-05-14T08:30:06;4.15;;;3.65;;
9970;SDS011;5026;51.494;11.974;2023-05-14T08:32:34;4.80;;;4.00;;
9970;SDS011;5026;51.494;11.974;2023-05-14T08:35:02;4.65;;;3.88;;
9970;SDS011;5026;51.494;11.974;2023-05-14T08:37:29;6.63;;;4.50;;
9970;SDS011;5026;51.494;11.974;2023-05-14T08:39:56;4.53;;;4.03;;
9970;SDS011;5026;51.494;11.974;2023-05-14T08:42:24;4.32;;;3.92;;
9970;SDS011;5026;51.494;11.974;2023-05-14T08:44:53;4.97;;;4.25;;
9970;SDS011;5026;51.494;11.974;2023-05-14T08:47:26;4.65;;;4.20;;
9970;SDS011;5026;51.494;11.974;2023-05-14T08:50:00;5.47;;;4.40;;
9970;SDS011;5026;51.494;11.974;2023-05-14T08:52:29;4.38;;;3.60;;
9970;SDS011;5026;51.494;11.974;2023-05-14T08:54:56;4.00;;;3.70;;
9970;SDS011;5026;51.494;11.974;2023-05-14T08:57:25;6.10;;;5.07;;
9970;SDS011;5026;51.494;11.974;2023-05-14T08:59:53;4.60;;;3.80;;
9970;SDS011;5026;51.494;11.974;2023-05-14T09:02:22;4.30;;;3.90;;
9970;SDS011;5026;51.494;11.974;2023-05-14T09:04:53;6.03;;;4.25;;
9970;SDS011;5026;51.494;11.974;2023-05-14T09:07:21;4.18;;;3.88;;
9970;SDS011;5026;51.494;11.974;2023-05-14T09:09:49;7.35;;;4.18;;
9970;SDS011;5026;51.494;11.974;2023-05-14T09:12:16;6.20;;;3.88;;
9970;SDS011;5026;51.494;11.974;2023-05-14T09:14:44;4.25;;;3.95;;
9970;SDS011;5026;51.494;11.974;2023-05-14T09:17:11;5.43;;;4.45;;
9970;SDS011;5026;51.494;11.974;2023-05-14T09:19:38;5.18;;;4.68;;
9970;SDS011;5026;51.494;11.974;2023-05-14T09:22:08;5.25;;;4.47;;
9970;SDS011;5026;51.494;11.974;2023-05-14T09:24:37;5.60;;;4.13;;
9970;SDS011;5026;51.494;11.974;2023-05-14T09:27:05;5.65;;;4.30;;
9970;SDS011;5026;51.494;11.974;2023-05-14T09:29:33;4.55;;;4.15;;
9970;SDS011;5026;51.494;11.974;2023-05-14T09:32:01;5.03;;;4.50;;
9970;SDS011;5026;51.494;11.974;2023-05-14T09:34:31;6.45;;;4.20;;
9970;SDS011;5026;51.494;11.974;2023-05-14T09:36:59;5.63;;;4.57;;
9970;SDS011;5026;51.494;11.974;2023-05-14T09:39:28;7.10;;;5.03;;
9970;SDS011;5026;51.494;11.974;2023-05-14T09:41:57;7.88;;;4.60;;
9970;SDS011;5026;51.494;11.974;2023-05-14T09:44:24;6.70;;;4.60;;
9970;SDS011;5026;51.494;11.974;2023-05-14T09:46:51;4.95;;;4.32;;
9970;SDS011;5026;51.494;11.974;2023-05-14T09:49:18;5.18;;;4.68;;
9970;SDS011;5026;51.494;11.974;2023-05-14T09:51:47;5.15;;;4.75;;
9970;SDS011;5026;51.494;11.974;2023-05-14T09:54:14;8.07;;;4.68;;
9970;SDS011;5026;51.494;11.974;2023-05-14T09:56:43;6.03;;;4.53;;
9970;SDS011;5026;51.494;11.974;2023-05-14T09:59:10;5.22;;;4.63;;
9970;SDS011;5026;51.494;11.974;2023-05-14T10:01:37;6.50;;;4.35;;
9970;SDS011;5026;51.494;11.974;2023-05-14T10:04:05;5.07;;;4.60;;
9970;SDS011;5026;51.494;11.974;2023-05-14T10:06:35;6.03;;;4.68;;
9970;SDS011;5026;51.494;11.974;2023-05-14T10:09:04;5.97;;;4.55;;
9970;SDS011;5026;51.494;11.974;2023-05-14T10:11:36;8.52;;;4.75;;
9970;SDS011;5026;51.494;11.974;2023-05-14T10:14:06;7.53;;;5.18;;
9970;SDS011;5026;51.494;11.974;2023-05-14T10:16:36;5.85;;;4.75;;
9970;SDS011;5026;51.494;11.974;2023-05-14T10:19:09;5.60;;;4.78;;
9970;SDS011;5026;51.494;11.974;2023-05-14T10:21:36;6.47;;;4.68;;
9970;SDS011;5026;51.494;11.974;2023-05-14T10:24:06;5.70;;;4.63;;
9970;SDS011;5026;51.494;11.974;2023-05-14T10:26:35;5.43;;;4.80;;
9970;SDS011;5026;51.494;11.974;2023-05-14T10:29:03;5.15;;;4.65;;
9970;SDS011;5026;51.494;11.974;2023-05-14T10:31:48;8.07;;;4.85;;
9970;SDS011;5026;51.494;11.974;2023-05-14T10:34:30;5.18;;;4.68;;
9970;SDS011;5026;51.494;11.974;2023-05-14T10:36:59;7.38;;;4.43;;
9970;SDS011;5026;51.494;11.974;2023-05-14T10:39:38;4.80;;;4.40;;
9970;SDS011;5026;51.494;11.974;2023-05-14T10:42:10;6.68;;;4.93;;
9970;SDS011;5026;51.494;11.974;2023-05-14T10:44:41;5.30;;;4.20;;
9970;SDS011;5026;51.494;11.974;2023-05-14T10:47:15;7.97;;;4.25;;
9970;SDS011;5026;51.494;11.974;2023-05-14T10:49:43;5.15;;;4.00;;
9970;SDS011;5026;51.494;11.974;2023-05-14T10:52:14;5.40;;;4.90;;
9970;SDS011;5026;51.494;11.974;2023-05-14T10:54:50;6.80;;;4.15;;
9970;SDS011;5026;51.494;11.974;2023-05-14T10:57:19;7.47;;;4.20;;
9970;SDS011;5026;51.494;11.974;2023-05-14T10:59:48;5.07;;;4.10;;
9970;SDS011;5026;51.494;11.974;2023-05-14T11:02:18;5.22;;;4.32;;
9970;SDS011;5026;51.494;11.974;2023-05-14T11:04:55;7.25;;;4.40;;
9970;SDS011;5026;51.494;11.974;2023-05-14T11:07:26;5.97;;;4.43;;
9970;SDS011;5026;51.494;11.974;2023-05-14T11:09:59;8.32;;;4.88;;
9970;SDS011;5026;51.494;11.974;2023-05-14T11:12:27;6.47;;;4.68;;
9970;SDS011;5026;51.494;11.974;2023-05-14T11:14:57;5.20;;;4.00;;
9970;SDS011;5026;51.494;11.974;2023-05-14T11:17:25;6.05;;;4.07;;
9970;SDS011;5026;51.494;11.974;2023-05-14T11:19:52;4.05;;;3.60;;
9970;SDS011;5026;51.494;11.974;2023-05-14T11:22:19;5.53;;;4.00;;
9970;SDS011;5026;51.494;11.974;2023-05-14T11:24:46;6.47;;;4.13;;
9970;SDS011;5026;51.494;11.974;2023-05-14T11:27:14;9.02;;;4.28;;
9970;SDS011;5026;51.494;11.974;2023-05-14T11:29:42;4.25;;;3.92;;
9970;SDS011;5026;51.494;11.974;2023-05-14T11:32:11;6.00;;;4.25;;
9970;SDS011;5026;51.494;11.974;2023-05-14T11:34:39;9.30;;;5.13;;
9970;SDS011;5026;51.494;11.974;2023-05-14T11:37:07;6.38;;;4.80;;
9970;SDS011;5026;51.494;11.974;2023-05-14T11:39:35;5.82;;;4.57;;
9970;SDS011;5026;51.494;11.974;2023-05-14T11:42:02;5.53;;;5.03;;
9970;SDS011;5026;51.494;11.974;2023-05-14T11:44:30;4.28;;;3.85;;
9970;SDS011;5026;51.494;11.974;2023-05-14T11:46:57;8.32;;;4.38;;
9970;SDS011;5026;51.494;11.974;2023-05-14T11:49:27;5.43;;;4.80;;
9970;SDS011;5026;51.494;11.974;2023-05-14T11:51:57;6.45;;;4.72;;
9970;SDS011;5026;51.494;11.974;2023-05-14T11:54:25;6.28;;;4.47;;
9970;SDS011;5026;51.494;11.974;2023-05-14T11:56:53;5.25;;;4.55;;
9970;SDS011;5026;51.494;11.974;2023-05-14T11:59:20;6.10;;;4.82;;
9970;SDS011;5026;51.494;11.974;2023-05-14T12:01:49;16.73;;;4.60;;
9970;SDS011;5026;51.494;11.974;2023-05-14T12:04:17;5.03;;;4.18;;
9970;SDS011;5026;51.494;11.974;2023-05-14T12:06:47;6.55;;;5.47;;
9970;SDS011;5026;51.494;11.974;2023-05-14T12:09:15;7.32;;;5.57;;
9970;SDS011;5026;51.494;11.974;2023-05-14T12:11:43;7.00;;;4.63;;
9970;SDS011;5026;51.494;11.974;2023-05-14T12:14:10;5.10;;;4.60;;
9970;SDS011;5026;51.494;11.974;2023-05-14T12:16:39;6.07;;;4.47;;
9970;SDS011;5026;51.494;11.974;2023-05-14T12:19:07;6.53;;;4.60;;
9970;SDS011;5026;51.494;11.974;2023-05-14T12:21:35;6.70;;;4.18;;
9970;SDS011;5026;51.494;11.974;2023-05-14T12:24:04;8.48;;;4.53;;
9970;SDS011;5026;51.494;11.974;2023-05-14T12:26:35;6.03;;;4.55;;
9970;SDS011;5026;51.494;11.974;2023-05-14T12:29:04;7.93;;;4.88;;
9970;SDS011;5026;51.494;11.974;2023-05-14T12:31:32;6.10;;;4.80;;
9970;SDS011;5026;51.494;11.974;2023-05-14T12:34:00;7.68;;;4.80;;
9970;SDS011;5026;51.494;11.974;2023-05-14T12:36:28;6.78;;;5.10;;
9970;SDS011;5026;51.494;11.974;2023-05-14T12:38:57;9.27;;;4.97;;
9970;SDS011;5026;51.494;11.974;2023-05-14T12:41:28;9.02;;;4.72;;
9970;SDS011;5026;51.494;11.974;2023-05-14T12:43:56;6.55;;;4.70;;
9970;SDS011;5026;51.494;11.974;2023-05-14T12:46:23;6.63;;;5.15;;
9970;SDS011;5026;51.494;11.974;2023-05-14T12:48:51;5.10;;;4.60;;
9970;SDS011;5026;51.494;11.974;2023-05-14T12:51:19;6.35;;;4.38;;
9970;SDS011;5026;51.494;11.974;2023-05-14T12:53:46;5.93;;;4.60;;
9970;SDS011;5026;51.494;11.974;2023-05-14T12:56:13;6.15;;;4.50;;
9970;SDS011;5026;51.494;11.974;2023-05-14T12:58:42;6.20;;;4.97;;
9970;SDS011;5026;51.494;11.974;2023-05-14T13:01:10;5.93;;;5.30;;
9970;SDS011;5026;51.494;11.974;2023-05-14T13:03:37;6.57;;;4.25;;
9970;SDS011;5026;51.494;11.974;2023-05-14T13:06:05;5.28;;;4.57;;
9970;SDS011;5026;51.494;11.974;2023-05-14T13:08:33;7.43;;;4.45;;
9970;SDS011;5026;51.494;11.974;2023-05-14T13:11:00;9.98;;;4.88;;
9970;SDS011;5026;51.494;11.974;2023-05-14T13:13:27;5.93;;;4.65;;
9970;SDS011;5026;51.494;11.974;2023-05-14T13:15:55;5.22;;;4.50;;
9970;SDS011;5026;51.494;11.974;2023-05-14T13:18:22;5.05;;;4.55;;
9970;SDS011;5026;51.494;11.974;2023-05-14T13:20:50;7.50;;;4.35;;
9970;SDS011;5026;51.494;11.974;2023-05-14T13:23:17;5.93;;;4.05;;
9970;SDS011;5026;51.494;11.974;2023-05-14T13:25:44;6.70;;;4.50;;
9970;SDS011;5026;51.494;11.974;2023-05-14T13:28:11;5.63;;;4.20;;
9970;SDS011;5026;51.494;11.974;2023-05-14T13:30:38;4.60;;;4.20;;
9970;SDS011;5026;51.494;11.974;2023-05-14T13:33:07;4.75;;;4.28;;
9970;SDS011;5026;51.494;11.974;2023-05-14T13:35:34;3.95;;;3.65;;
9970;SDS011;5026;51.494;11.974;2023-05-14T13:38:01;6.05;;;3.72;;
9970;SDS011;5026;51.494;11.974;2023-05-14T13:40:28;5.40;;;4.25;;
9970;SDS011;5026;51.494;11.974;2023-05-14T13:42:55;4.93;;;3.92;;
9970;SDS011;5026;51.494;11.974;2023-05-14T13:45:22;6.95;;;3.40;;
9970;SDS011;5026;51.494;11.974;2023-05-14T13:47:48;4.25;;;3.88;;
9970;SDS011;5026;51.494;11.974;2023-05-14T13:50:17;4.50;;;3.60;;
9970;SDS011;5026;51.494;11.974;2023-05-14T13:52:45;7.90;;;3.75;;
9970;SDS011;5026;51.494;11.974;2023-05-14T13:55:12;4.55;;;4.15;;
9970;SDS011;5026;51.494;11.974;2023-05-14T13:57:40;4.85;;;3.78;;
9970;SDS011;5026;51.494;11.974;2023-05-14T14:00:07;4.40;;;3.50;;
9970;SDS011;5026;51.494;11.974;2023-05-14T14:02:35;5.53;;;4.15;;
9970;SDS011;5026;51.494;11.974;2023-05-14T14:05:02;4.13;;;3.72;;
9970;SDS011;5026;51.494;11.974;2023-05-14T14:07:30;6.65;;;4.40;;
9970;SDS011;5026;51.494;11.974;2023-05-14T14:09:57;5.30;;;4.25;;
9970;SDS011;5026;51.494;11.974;2023-05-14T14:12:25;6.32;;;4.60;;
9970;SDS011;5026;51.494;11.974;2023-05-14T14:14:52;5.40;;;4.90;;
9970;SDS011;5026;51.494;11.974;2023-05-14T14:17:19;5.25;;;4.45;;
9970;SDS011;5026;51.494;11.974;2023-05-14T14:19:46;8.00;;;4.47;;
9970;SDS011;5026;51.494;11.974;2023-05-14T14:22:14;4.95;;;4.55;;
9970;SDS011;5026;51.494;11.974;2023-05-14T14:24:42;5.32;;;4.13;;
9970;SDS011;5026;51.494;11.974;2023-05-14T14:27:09;4.75;;;4.20;;
9970;SDS011;5026;51.494;11.974;2023-05-14T14:29:36;5.25;;;4.75;;
9970;SDS011;5026;51.494;11.974;2023-05-14T14:32:04;4.80;;;4.32;;
9970;SDS011;5026;51.494;11.974;2023-05-14T14:34:31;4.60;;;4.15;;
9970;SDS011;5026;51.494;11.974;2023-05-14T14:36:58;4.55;;;4.15;;
9970;SDS011;5026;51.494;11.974;2023-05-14T14:39:25;5.00;;;4.53;;
9970;SDS011;5026;51.494;11.974;2023-05-14T14:41:53;4.70;;;4.20;;
9970;SDS011;5026;51.494;11.974;2023-05-14T14:44:20;5.90;;;4.00;;
9970;SDS011;5026;51.494;11.974;2023-05-14T14:46:47;5.72;;;4.30;;
9970;SDS011;5026;51.494;11.974;2023-05-14T14:49:14;6.53;;;4.70;;
9970;SDS011;5026;51.494;11.974;2023-05-14T14:51:41;6.22;;;4.63;;
9970;SDS011;5026;51.494;11.974;2023-05-14T14:54:08;6.75;;;4.78;;
9970;SDS011;5026;51.494;11.974;2023-05-14T14:56:35;5.18;;;4.60;;
9970;SDS011;5026;51.494;11.974;2023-05-14T14:59:04;5.88;;;4.45;;
9970;SDS011;5026;51.494;11.974;2023-05-14T15:01:31;6.35;;;4.63;;
9970;SDS011;5026;51.494;11.974;2023-05-14T15:03:58;7.60;;;4.65;;
9970;SDS011;5026;51.494;11.974;2023-05-14T15:06:25;5.28;;;4.35;;